createdAt,value
2018-05-14T00:02:23.546Z,11.80
2018-05-14T00:04:52.983Z,11.00
2018-05-14T00:07:22.382Z,10.20
2018-05-14T00:09:51.152Z,12.40
2018-05-14T00:12:20.397Z,13.40
2018-05-14T00:14:50.774Z,10.80
2018-05-14T00:17:20.142Z,16.40
2018-05-14T00:19:49.260Z,14.00
2018-05-14T00:22:19.236Z,15.00
2018-05-14T00:24:48.562Z,14.80
2018-05-14T00:27:18.534Z,16.20
2018-05-14T00:29:47.872Z,16.00
2018-05-14T00:32:17.555Z,15.20
2018-05-14T00:34:47.172Z,15.40
2018-05-14T00:37:16.296Z,14.40
2018-05-14T00:39:45.740Z,16.00
2018-05-14T00:42:15.506Z,12.60
2018-05-14T00:44:45.889Z,14.60
2018-05-14T00:47:14.988Z,14.80
2018-05-14T00:49:43.932Z,16.40
2018-05-14T00:52:13.286Z,15.60
2018-05-14T00:54:53.837Z,18.80
2018-05-14T00:57:24.174Z,15.40
2018-05-14T00:59:54.873Z,16.00
2018-05-14T01:02:24.186Z,16.00
2018-05-14T01:04:53.982Z,17.80
2018-05-14T01:07:23.641Z,17.40
2018-05-14T01:09:52.387Z,22.00
2018-05-14T01:12:21.644Z,20.00
2018-05-14T01:14:51.320Z,21.20
2018-05-14T01:17:22.089Z,16.00
2018-05-14T01:19:51.483Z,21.80
2018-05-14T01:22:20.969Z,22.20
2018-05-14T01:24:55.966Z,22.00
2018-05-14T01:27:25.437Z,22.00
2018-05-14T01:29:54.690Z,21.40
2018-05-14T01:32:24.010Z,22.00
2018-05-14T01:34:53.215Z,22.20
2018-05-14T01:37:23.141Z,22.40
2018-05-14T01:39:53.003Z,24.00
2018-05-14T01:42:22.682Z,22.60
2018-05-14T01:44:51.339Z,22.20
2018-05-14T01:47:20.465Z,23.60
2018-05-14T01:49:50.142Z,22.00
2018-05-14T01:52:19.499Z,23.20
2018-05-14T01:54:48.829Z,23.60
2018-05-14T01:57:18.722Z,24.00
2018-05-14T01:59:47.998Z,25.00
2018-05-14T02:02:18.773Z,23.00
2018-05-14T02:04:48.407Z,23.80
2018-05-14T02:07:17.926Z,25.80
2018-05-14T02:09:46.943Z,25.80
2018-05-14T02:12:16.221Z,22.80
2018-05-14T02:14:45.587Z,23.40
2018-05-14T02:17:14.613Z,23.00
2018-05-14T02:19:43.323Z,22.00
2018-05-14T02:22:13.170Z,21.80
2018-05-14T02:24:42.264Z,18.40
2018-05-14T02:27:12.028Z,20.00
2018-05-14T02:29:41.455Z,20.00
2018-05-14T02:32:10.771Z,19.80
2018-05-14T02:34:40.286Z,21.60
2018-05-14T02:37:10.182Z,21.40
2018-05-14T02:39:39.796Z,21.00
2018-05-14T02:42:08.928Z,21.40
2018-05-14T02:44:38.337Z,22.00
2018-05-14T02:47:07.211Z,21.20
2018-05-14T02:49:36.832Z,21.20
2018-05-14T02:52:05.706Z,20.20
2018-05-14T02:54:35.128Z,20.00
2018-05-14T02:57:04.752Z,21.00
2018-05-14T02:59:33.350Z,21.60
2018-05-14T03:02:01.662Z,20.60
2018-05-14T03:04:30.918Z,18.40
2018-05-14T03:07:00.791Z,22.20
2018-05-14T03:09:29.921Z,22.00
2018-05-14T03:11:59.553Z,20.00
2018-05-14T03:14:29.497Z,19.80
2018-05-14T03:16:58.836Z,19.40
2018-05-14T03:19:28.076Z,21.20
2018-05-14T03:21:56.983Z,20.60
2018-05-14T03:24:25.670Z,21.60
2018-05-14T03:26:54.914Z,20.20
2018-05-14T03:29:24.164Z,21.00
2018-05-14T03:31:54.017Z,19.60
2018-05-14T03:34:24.081Z,19.80
2018-05-14T03:36:52.904Z,22.40
2018-05-14T03:39:22.396Z,20.60
2018-05-14T03:41:51.292Z,20.00
2018-05-14T03:44:20.540Z,22.20
2018-05-14T03:46:49.595Z,19.40
2018-05-14T03:49:18.537Z,21.00
2018-05-14T03:51:47.765Z,20.00
2018-05-14T03:54:17.753Z,18.40
2018-05-14T03:56:47.159Z,21.40
2018-05-14T03:59:27.633Z,21.40
2018-05-14T04:02:18.457Z,23.00
2018-05-14T04:04:59.314Z,22.20
2018-05-14T04:07:28.756Z,20.40
2018-05-14T04:09:59.529Z,23.00
2018-05-14T04:12:28.584Z,23.00
2018-05-14T04:14:58.851Z,21.80
2018-05-14T04:17:27.794Z,23.00
2018-05-14T04:19:57.169Z,25.20
2018-05-14T04:22:26.461Z,24.20
2018-05-14T04:24:55.665Z,22.60
2018-05-14T04:27:24.405Z,24.00
2018-05-14T04:29:54.066Z,22.80
2018-05-14T04:32:22.980Z,21.80
2018-05-14T04:34:51.869Z,24.00
2018-05-14T04:37:21.400Z,23.20
2018-05-14T04:39:50.754Z,24.60
2018-05-14T04:42:20.475Z,19.80
2018-05-14T04:44:49.268Z,19.80
2018-05-14T04:47:18.564Z,22.40
2018-05-14T04:49:47.780Z,25.40
2018-05-14T04:52:17.680Z,26.40
2018-05-14T04:54:47.439Z,26.00
2018-05-14T04:57:16.785Z,27.60
2018-05-14T04:59:46.344Z,26.20
2018-05-14T05:02:15.094Z,26.80
2018-05-14T05:04:43.898Z,26.80
2018-05-14T05:07:13.144Z,26.00
2018-05-14T05:09:42.894Z,28.00
2018-05-14T05:12:12.268Z,25.60
2018-05-14T05:14:41.629Z,24.20
2018-05-14T05:17:11.554Z,25.00
2018-05-14T05:19:41.101Z,26.00
2018-05-14T05:22:11.116Z,26.40
2018-05-14T05:24:39.970Z,25.20
2018-05-14T05:27:09.633Z,25.40
2018-05-14T05:29:38.966Z,24.00
2018-05-14T05:32:08.715Z,25.00
2018-05-14T05:34:38.206Z,23.00
2018-05-14T05:37:07.078Z,24.00
2018-05-14T05:39:36.639Z,23.40
2018-05-14T05:42:05.904Z,24.00
2018-05-14T05:44:34.909Z,23.00
2018-05-14T05:47:04.305Z,23.00
2018-05-14T05:49:33.611Z,21.40
2018-05-14T05:52:03.107Z,24.00
2018-05-14T05:54:32.845Z,23.80
2018-05-14T05:57:02.441Z,23.80
2018-05-14T05:59:32.305Z,23.20
2018-05-14T06:02:01.447Z,22.60
2018-05-14T06:04:30.754Z,23.00
2018-05-14T06:06:59.840Z,23.00
2018-05-14T06:09:28.637Z,23.20
2018-05-14T06:11:57.590Z,24.20
2018-05-14T06:14:28.036Z,23.60
2018-05-14T06:16:57.007Z,23.40
2018-05-14T06:19:26.637Z,24.20
2018-05-14T06:27:04.805Z,23.80
2018-05-14T06:29:33.813Z,25.60
2018-05-14T06:32:04.259Z,24.40
2018-05-14T06:34:33.700Z,26.40
2018-05-14T06:37:03.074Z,26.00
2018-05-14T06:39:33.445Z,25.00
2018-05-14T06:42:03.890Z,24.00
2018-05-14T06:44:33.747Z,24.20
2018-05-14T06:47:06.915Z,25.80
2018-05-14T06:49:36.268Z,25.00
2018-05-14T06:54:39.131Z,27.00
2018-05-14T06:57:08.551Z,26.20
2018-05-14T06:59:37.999Z,26.20
2018-05-14T07:02:07.759Z,26.00
2018-05-14T07:04:37.342Z,26.00
2018-05-14T07:07:06.773Z,27.00
2018-05-14T07:09:36.315Z,26.40
2018-05-14T07:14:40.769Z,25.80
2018-05-14T07:17:09.925Z,24.80
2018-05-14T07:19:39.576Z,23.80
2018-05-14T07:22:08.594Z,25.20
2018-05-14T07:24:37.926Z,26.00
2018-05-14T07:27:08.036Z,24.80
2018-05-14T07:29:37.097Z,23.00
2018-05-14T07:32:06.167Z,26.00
2018-05-14T07:34:34.962Z,24.20
2018-05-14T07:37:03.641Z,23.60
2018-05-14T07:39:32.772Z,22.60
2018-05-14T07:42:01.762Z,24.80
2018-05-14T07:44:30.910Z,26.20
2018-05-14T07:47:00.483Z,23.00
2018-05-14T07:49:30.082Z,26.20
2018-05-14T07:51:59.489Z,27.80
2018-05-14T07:54:28.610Z,24.00
2018-05-14T07:56:57.831Z,26.20
2018-05-14T07:59:27.685Z,25.60
2018-05-14T08:01:57.217Z,27.00
2018-05-14T08:04:26.228Z,24.00
2018-05-14T08:06:55.846Z,25.80
2018-05-14T08:09:24.963Z,26.00
2018-05-14T08:11:54.351Z,26.00
2018-05-14T08:14:23.249Z,25.80
2018-05-14T08:16:53.402Z,26.00
2018-05-14T08:19:23.218Z,26.00
2018-05-14T08:21:52.361Z,25.20
2018-05-14T08:24:21.057Z,26.00
2018-05-14T08:26:50.595Z,26.00
2018-05-14T08:29:20.266Z,26.00
2018-05-14T08:31:49.337Z,27.00
2018-05-14T08:34:18.756Z,23.60
2018-05-14T08:36:48.935Z,27.00
2018-05-14T08:39:18.572Z,24.40
2018-05-14T08:41:47.798Z,26.40
2018-05-14T08:44:17.212Z,23.80
2018-05-14T08:46:47.372Z,23.20
2018-05-14T08:49:17.807Z,25.80
2018-05-14T08:51:47.817Z,25.20
2018-05-14T08:54:17.091Z,27.00
2018-05-14T08:56:46.449Z,25.20
2018-05-14T08:59:15.841Z,26.20
2018-05-14T09:01:45.714Z,27.20
2018-05-14T09:04:15.452Z,25.00
2018-05-14T09:06:45.368Z,27.00
2018-05-14T09:09:14.244Z,27.20
2018-05-14T09:11:43.167Z,26.00
2018-05-14T09:14:13.344Z,25.80
2018-05-14T09:16:43.473Z,25.20
2018-05-14T09:19:13.659Z,25.60
2018-05-14T09:21:43.230Z,26.20
2018-05-14T09:24:13.265Z,26.00
2018-05-14T09:26:42.761Z,26.40
2018-05-14T09:29:13.109Z,25.20
2018-05-14T09:31:42.949Z,26.60
2018-05-14T09:34:23.670Z,24.20
2018-05-14T09:36:53.639Z,26.20
2018-05-14T09:39:23.274Z,24.40
2018-05-14T09:41:53.346Z,24.80
2018-05-14T09:44:22.926Z,26.00
2018-05-14T09:46:52.888Z,27.20
2018-05-14T09:49:22.741Z,26.60
2018-05-14T09:51:52.217Z,26.40
2018-05-14T09:54:23.810Z,26.20
2018-05-14T09:56:54.450Z,24.00
2018-05-14T09:59:23.338Z,23.00
2018-05-14T10:01:53.245Z,24.00
2018-05-14T10:04:22.861Z,22.40
2018-05-14T10:06:52.198Z,23.20
2018-05-14T10:09:22.120Z,22.20
2018-05-14T10:11:51.364Z,24.20
2018-05-14T10:14:20.920Z,23.20
2018-05-14T10:16:50.638Z,22.00
2018-05-14T10:19:20.310Z,23.80
2018-05-14T10:21:49.935Z,23.00
2018-05-14T10:24:20.257Z,23.00
2018-05-14T10:26:49.840Z,23.20
2018-05-14T10:29:18.811Z,23.00
2018-05-14T10:31:48.027Z,23.60
2018-05-14T10:34:18.027Z,23.20
2018-05-14T10:36:47.425Z,23.60
2018-05-14T10:39:17.531Z,22.40
2018-05-14T10:41:48.568Z,21.40
2018-05-14T10:44:18.163Z,21.20
2018-05-14T10:46:47.706Z,22.20
2018-05-14T10:49:18.420Z,23.20
2018-05-14T10:51:49.031Z,22.20
2018-05-14T10:54:19.762Z,22.40
2018-05-14T10:56:49.295Z,22.20
2018-05-14T10:59:18.524Z,22.20
2018-05-14T11:01:48.173Z,23.00
2018-05-14T11:04:17.720Z,23.00
2018-05-14T11:06:47.900Z,22.20
2018-05-14T11:09:18.012Z,22.80
2018-05-14T11:11:47.136Z,21.00
2018-05-14T11:14:17.414Z,23.40
2018-05-14T11:16:46.799Z,19.80
2018-05-14T11:19:15.619Z,22.00
2018-05-14T11:21:45.296Z,22.60
2018-05-14T11:24:14.107Z,21.80
2018-05-14T11:26:43.722Z,21.40
2018-05-14T11:29:13.111Z,19.80
2018-05-14T11:31:43.108Z,22.40
2018-05-14T11:34:13.016Z,21.80
2018-05-14T11:36:43.538Z,22.20
2018-05-14T11:39:12.713Z,21.00
2018-05-14T11:41:42.205Z,19.80
2018-05-14T11:44:12.030Z,21.40
2018-05-14T11:46:41.897Z,19.80
2018-05-14T11:49:16.395Z,19.80
2018-05-14T11:51:45.482Z,19.60
2018-05-14T11:54:14.338Z,21.40
2018-05-14T11:56:44.167Z,20.40
2018-05-14T12:10:36.469Z,22.20
2018-05-14T12:13:05.680Z,21.80
2018-05-14T12:15:34.702Z,21.20
2018-05-14T12:18:04.782Z,20.60
2018-05-14T12:20:34.588Z,22.40
2018-05-14T12:23:04.469Z,20.80
2018-05-14T12:25:34.546Z,19.80
2018-05-14T12:28:03.751Z,20.60
2018-05-14T12:30:33.819Z,20.00
2018-05-14T12:33:02.789Z,21.00
2018-05-14T12:35:32.331Z,21.80
2018-05-14T12:38:02.489Z,20.80
2018-05-14T12:40:32.525Z,20.40
2018-05-14T12:43:01.671Z,17.80
2018-05-14T12:45:31.411Z,20.00
2018-05-14T12:48:00.669Z,20.00
2018-05-14T12:50:29.836Z,22.60
2018-05-14T12:52:58.996Z,21.20
2018-05-14T12:55:28.526Z,19.80
2018-05-14T12:57:58.222Z,22.40
2018-05-14T13:00:28.518Z,21.40
2018-05-14T13:02:59.119Z,21.80
2018-05-14T13:05:29.132Z,22.20
2018-05-14T13:07:59.136Z,22.40
2018-05-14T13:10:28.988Z,22.00
2018-05-14T13:12:58.222Z,20.80
2018-05-14T13:15:27.744Z,20.80
2018-05-14T13:17:57.681Z,23.40
2018-05-14T13:20:27.002Z,21.00
2018-05-14T13:22:56.530Z,22.20
2018-05-14T13:25:26.675Z,23.80
2018-05-14T13:27:56.138Z,22.80
2018-05-14T13:30:25.191Z,21.60
2018-05-14T13:32:54.525Z,22.20
2018-05-14T13:35:23.680Z,22.20
2018-05-14T13:37:53.288Z,23.80
2018-05-14T13:40:22.675Z,22.00
2018-05-14T13:42:51.373Z,22.40
2018-05-14T13:45:20.189Z,23.00
2018-05-14T13:47:48.973Z,24.80
2018-05-14T13:50:17.570Z,24.80
2018-05-14T13:52:46.154Z,22.80
2018-05-14T13:55:15.082Z,24.20
2018-05-14T13:57:44.511Z,24.20
2018-05-14T14:00:14.209Z,23.80
2018-05-14T14:02:43.873Z,25.20
2018-05-14T14:05:13.197Z,25.20
2018-05-14T14:07:42.410Z,25.00
2018-05-14T14:10:11.975Z,24.00
2018-05-14T14:12:41.175Z,23.40
2018-05-14T14:15:10.215Z,24.40
2018-05-14T14:17:39.636Z,25.00
2018-05-14T14:20:09.104Z,24.80
2018-05-14T14:22:38.881Z,24.60
2018-05-14T14:25:07.883Z,25.20
2018-05-14T14:27:37.647Z,24.80
2018-05-14T14:30:07.010Z,23.80
2018-05-14T14:32:37.013Z,26.00
2018-05-14T14:35:06.652Z,25.80
2018-05-14T14:37:36.475Z,27.00
2018-05-14T14:40:05.689Z,24.20
2018-05-14T14:42:34.368Z,28.80
2018-05-14T14:45:03.580Z,28.80
2018-05-14T14:47:33.134Z,27.20
2018-05-14T14:50:01.914Z,30.20
2018-05-14T14:52:31.181Z,30.80
2018-05-14T14:55:00.805Z,30.40
2018-05-14T14:57:31.110Z,29.80
2018-05-14T15:00:01.454Z,28.40
2018-05-14T15:02:30.164Z,28.80
2018-05-14T15:04:59.690Z,28.60
2018-05-14T15:07:28.471Z,29.20
2018-05-14T15:09:57.984Z,29.20
2018-05-14T15:12:26.488Z,28.80
2018-05-14T15:14:56.123Z,29.00
2018-05-14T15:17:26.170Z,28.60
2018-05-14T15:19:55.677Z,30.00
2018-05-14T15:22:24.728Z,29.00
2018-05-14T15:24:54.504Z,27.20
2018-05-14T15:27:23.817Z,30.80
2018-05-14T15:29:53.116Z,30.40
2018-05-14T15:32:22.881Z,31.20
2018-05-14T15:34:51.796Z,32.60
2018-05-14T15:37:21.875Z,30.60
2018-05-14T15:39:50.909Z,31.60
2018-05-14T15:42:19.941Z,31.60
2018-05-14T15:44:48.789Z,32.20
2018-05-14T15:47:17.982Z,33.60
2018-05-14T15:49:47.681Z,32.80
2018-05-14T15:52:18.929Z,34.60
2018-05-14T15:54:48.621Z,32.40
2018-05-14T15:57:17.644Z,33.20
2018-05-14T15:59:47.313Z,27.00
2018-05-14T16:02:16.607Z,29.40
2018-05-14T16:04:46.431Z,28.00
2018-05-14T16:07:15.553Z,29.80
2018-05-14T16:09:45.064Z,29.20
2018-05-14T16:12:14.691Z,28.80
2018-05-14T16:14:44.524Z,28.60
2018-05-14T16:17:14.208Z,28.80
2018-05-14T16:19:44.293Z,28.60
2018-05-14T16:22:13.887Z,30.40
2018-05-14T16:24:42.597Z,30.40
2018-05-14T16:27:12.355Z,29.60
2018-05-14T16:29:41.709Z,30.00
2018-05-14T16:32:11.961Z,27.80
2018-05-14T16:34:41.352Z,29.80
2018-05-14T16:37:11.073Z,29.40
2018-05-14T16:39:40.979Z,29.00
2018-05-14T16:42:10.386Z,29.00
2018-05-14T16:44:39.403Z,29.80
2018-05-14T16:47:08.655Z,29.60
2018-05-14T16:49:38.130Z,29.80
2018-05-14T16:52:07.699Z,29.20
2018-05-14T16:54:37.275Z,29.80
2018-05-14T16:57:06.510Z,29.40
2018-05-14T16:59:35.975Z,30.40
2018-05-14T17:02:05.403Z,28.40
2018-05-14T17:04:35.355Z,30.20
2018-05-14T17:07:05.023Z,30.00
2018-05-14T17:09:34.659Z,30.20
2018-05-14T17:12:03.889Z,30.20
2018-05-14T17:14:32.994Z,31.00
2018-05-14T17:17:02.371Z,31.60
2018-05-14T17:19:31.808Z,30.60
2018-05-14T17:22:00.625Z,29.80
2018-05-14T17:24:29.906Z,30.20
2018-05-14T17:26:59.821Z,29.60
2018-05-14T17:29:29.351Z,32.60
2018-05-14T17:31:58.817Z,33.60
2018-05-14T17:34:28.568Z,33.60
2018-05-14T17:36:58.151Z,33.80
2018-05-14T17:39:26.940Z,31.80
2018-05-14T17:41:56.019Z,32.80
2018-05-14T17:44:25.166Z,31.20
2018-05-14T17:46:54.270Z,30.60
2018-05-14T17:49:23.564Z,31.80
2018-05-14T17:51:53.016Z,31.20
2018-05-14T17:54:22.503Z,32.20
2018-05-14T17:56:52.678Z,30.80
2018-05-14T17:59:22.293Z,31.60
2018-05-14T18:01:51.130Z,30.80
2018-05-14T18:04:20.789Z,30.20
2018-05-14T18:06:50.135Z,30.80
2018-05-14T18:09:19.679Z,30.20
2018-05-14T18:11:49.923Z,30.20
2018-05-14T18:14:19.271Z,30.40
2018-05-14T18:16:49.065Z,30.20
2018-05-14T18:19:18.908Z,33.40
2018-05-14T18:21:48.726Z,31.00
2018-05-14T18:24:17.481Z,32.80
2018-05-14T18:26:47.171Z,32.20
2018-05-14T18:29:21.608Z,32.80
2018-05-14T18:31:57.640Z,32.20
2018-05-14T18:34:34.670Z,31.20
2018-05-14T18:37:04.085Z,31.40
2018-05-14T18:39:34.270Z,31.20
2018-05-14T18:42:03.763Z,29.80
2018-05-14T18:44:34.486Z,30.80
2018-05-14T18:47:03.548Z,32.20
2018-05-14T18:49:33.233Z,32.60
2018-05-14T18:52:03.401Z,32.80
2018-05-14T18:54:33.260Z,33.80
2018-05-14T18:57:02.673Z,35.20
2018-05-14T18:59:31.880Z,34.00
2018-05-14T19:02:01.101Z,32.20
2018-05-14T19:04:30.641Z,32.20
2018-05-14T19:07:00.013Z,31.20
2018-05-14T19:09:28.885Z,32.20
2018-05-14T19:11:58.360Z,31.40
2018-05-14T19:14:27.985Z,32.20
2018-05-14T19:17:04.226Z,30.80
2018-05-14T19:19:48.894Z,30.20
2018-05-14T19:22:23.634Z,29.60
2018-05-14T19:24:53.420Z,30.20
2018-05-14T19:27:22.938Z,28.20
2018-05-14T19:29:52.160Z,29.80
2018-05-14T19:32:21.139Z,29.60
2018-05-14T19:34:58.484Z,27.00
2018-05-14T19:37:27.771Z,27.80
2018-05-14T19:40:02.383Z,29.20
2018-05-14T19:42:32.123Z,28.60
2018-05-14T19:45:01.456Z,28.40
2018-05-14T19:47:30.737Z,26.60
2018-05-14T19:50:00.323Z,27.20
2018-05-14T19:52:30.038Z,28.80
2018-05-14T19:54:59.250Z,28.80
2018-05-14T19:57:28.214Z,27.20
2018-05-14T19:59:57.803Z,27.60
2018-05-14T20:02:26.845Z,28.00
2018-05-14T20:04:56.247Z,27.00
2018-05-14T20:07:25.285Z,27.40
2018-05-14T20:09:54.890Z,27.40
2018-05-14T20:12:24.085Z,27.20
2018-05-14T20:14:53.849Z,26.80
2018-05-14T20:17:23.068Z,26.20
2018-05-14T20:19:53.115Z,25.20
2018-05-14T20:22:22.001Z,27.20
2018-05-14T20:24:51.715Z,27.20
2018-05-14T20:27:21.065Z,27.60
2018-05-14T20:29:50.225Z,27.00
2018-05-14T20:32:19.381Z,27.20
2018-05-14T20:34:48.434Z,27.20
2018-05-14T20:37:18.462Z,26.40
2018-05-14T20:39:48.410Z,25.80
2018-05-14T20:42:17.210Z,26.40
2018-05-14T20:44:46.092Z,27.60
2018-05-14T20:47:15.477Z,24.40
2018-05-14T20:49:44.504Z,27.20
2018-05-14T20:52:13.955Z,27.40
2018-05-14T20:54:43.747Z,22.00
2018-05-14T20:57:13.376Z,27.20
2018-05-14T20:59:42.880Z,27.00
2018-05-14T21:02:12.163Z,26.40
2018-05-14T21:04:42.107Z,26.60
2018-05-14T21:07:11.126Z,26.20
2018-05-14T21:09:40.320Z,27.20
2018-05-14T21:12:09.748Z,28.20
2018-05-14T21:14:39.569Z,27.00
2018-05-14T21:17:08.671Z,29.20
2018-05-14T21:19:38.230Z,27.80
2018-05-14T21:22:07.854Z,27.40
2018-05-14T21:24:37.212Z,26.80
2018-05-14T21:27:07.024Z,28.00
2018-05-14T21:29:36.481Z,27.00
2018-05-14T21:32:05.655Z,27.80
2018-05-14T21:34:35.277Z,26.20
2018-05-14T21:37:04.795Z,25.80
2018-05-14T21:39:34.714Z,27.00
2018-05-14T21:42:04.339Z,26.20
2018-05-14T21:44:33.859Z,26.60
2018-05-14T21:47:03.006Z,26.60
2018-05-14T21:49:32.923Z,26.40
2018-05-14T21:52:02.258Z,26.80
2018-05-14T21:54:31.151Z,26.40
2018-05-14T21:57:00.594Z,27.20
2018-05-14T21:59:29.739Z,27.60
2018-05-14T22:01:59.431Z,26.00
2018-05-14T22:04:28.459Z,27.00
2018-05-14T22:06:57.516Z,27.20
2018-05-14T22:09:26.847Z,26.40
2018-05-14T22:11:56.129Z,26.00
2018-05-14T22:14:25.581Z,26.20
2018-05-14T22:16:54.555Z,27.00
2018-05-14T22:19:24.349Z,26.80
2018-05-14T22:21:53.553Z,26.00
2018-05-14T22:24:23.452Z,26.80
2018-05-14T22:26:52.877Z,26.60
2018-05-14T22:29:22.446Z,27.00
2018-05-14T22:31:51.823Z,25.60
2018-05-14T22:34:20.683Z,26.00
2018-05-14T22:36:50.518Z,27.20
2018-05-14T22:39:20.144Z,27.80
2018-05-14T22:41:49.622Z,26.40
2018-05-14T22:44:19.283Z,27.00
2018-05-14T22:46:48.764Z,24.00
2018-05-14T22:49:18.712Z,27.40
2018-05-14T22:51:48.728Z,27.00
2018-05-14T22:54:29.247Z,25.80
2018-05-14T22:56:58.815Z,26.00
2018-05-14T22:59:27.426Z,26.40
2018-05-14T23:01:56.862Z,26.00
2018-05-14T23:04:26.165Z,26.60
2018-05-14T23:06:55.478Z,24.00
2018-05-14T23:09:25.396Z,26.80
2018-05-14T23:11:54.545Z,26.00
2018-05-14T23:14:23.912Z,26.40
2018-05-14T23:16:52.790Z,25.60
2018-05-14T23:19:21.635Z,25.80
2018-05-14T23:21:51.245Z,24.40
2018-05-14T23:24:20.495Z,26.60
2018-05-14T23:26:50.636Z,24.40
2018-05-14T23:29:19.664Z,24.00
2018-05-14T23:31:49.063Z,27.00
2018-05-14T23:34:17.997Z,26.60
2018-05-14T23:36:47.557Z,25.20
2018-05-14T23:39:17.404Z,25.20
2018-05-14T23:41:46.890Z,27.00
2018-05-14T23:44:16.853Z,26.00
2018-05-14T23:46:46.269Z,26.00
2018-05-14T23:49:16.173Z,26.00
2018-05-14T23:51:45.592Z,26.00
2018-05-14T23:54:15.191Z,24.80
2018-05-14T23:56:44.821Z,26.60
2018-05-14T23:59:14.251Z,27.40
